sensor_id;sensor_type;location;lat;lon;timestamp;temperature;humidity
25334;DHT22;24559;53.590;9.764;2023-03-23T00:02:31;12.80;99.90
25334;DHT22;24559;53.590;9.764;2023-03-23T00:05:01;12.80;99.90
25334;DHT22;24559;53.590;9.764;2023-03-23T00:07:28;12.70;99.90
25334;DHT22;24559;53.590;9.764;2023-03-23T00:09:54;12.70;99.90
25334;DHT22;24559;53.590;9.764;2023-03-23T00:12:25;12.70;99.90
25334;DHT22;24559;53.590;9.764;2023-03-23T00:15:05;12.70;99.90
25334;DHT22;24559;53.590;9.764;2023-03-23T00:17:33;12.80;99.90
25334;DHT22;24559;53.590;9.764;2023-03-23T00:19:59;12.80;99.90
25334;DHT22;24559;53.590;9.764;2023-03-23T00:22:27;12.70;99.90
25334;DHT22;24559;53.590;9.764;2023-03-23T00:24:53;12.60;99.90
25334;DHT22;24559;53.590;9.764;2023-03-23T00:27:18;12.70;99.90
25334;DHT22;24559;53.590;9.764;2023-03-23T00:29:47;12.60;99.90
25334;DHT22;24559;53.590;9.764;2023-03-23T00:32:13;12.60;99.90
25334;DHT22;24559;53.590;9.764;2023-03-23T00:34:40;12.60;99.90
25334;DHT22;24559;53.590;9.764;2023-03-23T00:37:08;12.50;99.90
25334;DHT22;24559;53.590;9.764;2023-03-23T00:39:35;12.50;99.90
25334;DHT22;24559;53.590;9.764;2023-03-23T00:42:02;12.50;99.90
25334;DHT22;24559;53.590;9.764;2023-03-23T00:44:28;12.60;99.90
25334;DHT22;24559;53.590;9.764;2023-03-23T00:46:56;12.70;99.90
25334;DHT22;24559;53.590;9.764;2023-03-23T00:49:23;12.60;99.90
25334;DHT22;24559;53.590;9.764;2023-03-23T00:51:50;12.70;99.90
25334;DHT22;24559;53.590;9.764;2023-03-23T00:54:16;12.60;99.90
25334;DHT22;24559;53.590;9.764;2023-03-23T00:56:41;12.50;99.90
25334;DHT22;24559;53.590;9.764;2023-03-23T00:59:07;12.60;99.90
25334;DHT22;24559;53.590;9.764;2023-03-23T01:01:33;12.70;99.90
25334;DHT22;24559;53.590;9.764;2023-03-23T01:04:00;12.70;99.90
25334;DHT22;24559;53.590;9.764;2023-03-23T01:06:44;12.70;99.90
25334;DHT22;24559;53.590;9.764;2023-03-23T01:09:12;12.60;99.90
25334;DHT22;24559;53.590;9.764;2023-03-23T01:11:42;12.70;99.90
25334;DHT22;24559;53.590;9.764;2023-03-23T01:14:08;12.70;99.90
25334;DHT22;24559;53.590;9.764;2023-03-23T01:16:34;12.80;99.90
25334;DHT22;24559;53.590;9.764;2023-03-23T01:19:00;12.80;99.90
25334;DHT22;24559;53.590;9.764;2023-03-23T01:21:26;12.80;99.90
25334;DHT22;24559;53.590;9.764;2023-03-23T01:23:52;12.80;99.90
25334;DHT22;24559;53.590;9.764;2023-03-23T01:26:21;13.30;99.90
25334;DHT22;24559;53.590;9.764;2023-03-23T01:28:47;12.80;99.90
25334;DHT22;24559;53.590;9.764;2023-03-23T01:31:14;12.90;99.90
25334;DHT22;24559;53.590;9.764;2023-03-23T01:33:40;12.90;99.90
25334;DHT22;24559;53.590;9.764;2023-03-23T01:36:09;13.00;99.90
25334;DHT22;24559;53.590;9.764;2023-03-23T01:38:35;12.80;99.90
25334;DHT22;24559;53.590;9.764;2023-03-23T01:41:02;12.80;99.90
25334;DHT22;24559;53.590;9.764;2023-03-23T01:43:28;12.90;99.90
25334;DHT22;24559;53.590;9.764;2023-03-23T01:45:54;12.80;99.90
25334;DHT22;24559;53.590;9.764;2023-03-23T01:48:24;12.90;99.90
25334;DHT22;24559;53.590;9.764;2023-03-23T01:50:56;12.90;99.90
25334;DHT22;24559;53.590;9.764;2023-03-23T01:53:25;12.90;99.90
25334;DHT22;24559;53.590;9.764;2023-03-23T01:55:52;12.90;99.90
25334;DHT22;24559;53.590;9.764;2023-03-23T01:58:19;12.90;99.90
25334;DHT22;24559;53.590;9.764;2023-03-23T02:00:46;12.90;99.90
25334;DHT22;24559;53.590;9.764;2023-03-23T02:03:13;12.90;99.90
25334;DHT22;24559;53.590;9.764;2023-03-23T02:05:41;12.90;99.90
25334;DHT22;24559;53.590;9.764;2023-03-23T02:08:16;12.90;99.90
25334;DHT22;24559;53.590;9.764;2023-03-23T02:10:44;12.90;99.90
25334;DHT22;24559;53.590;9.764;2023-03-23T02:13:11;12.40;99.90
25334;DHT22;24559;53.590;9.764;2023-03-23T02:36:40;13.00;99.90
25334;DHT22;24559;53.590;9.764;2023-03-23T02:39:12;13.00;99.90
25334;DHT22;24559;53.590;9.764;2023-03-23T02:41:48;13.00;99.90
25334;DHT22;24559;53.590;9.764;2023-03-23T02:44:16;13.00;99.90
25334;DHT22;24559;53.590;9.764;2023-03-23T02:46:42;12.90;99.90
25334;DHT22;24559;53.590;9.764;2023-03-23T02:49:09;13.20;99.90
25334;DHT22;24559;53.590;9.764;2023-03-23T02:51:36;13.00;99.90
25334;DHT22;24559;53.590;9.764;2023-03-23T02:54:03;13.10;99.90
25334;DHT22;24559;53.590;9.764;2023-03-23T02:56:30;13.00;99.90
25334;DHT22;24559;53.590;9.764;2023-03-23T02:58:59;13.00;99.90
25334;DHT22;24559;53.590;9.764;2023-03-23T03:03:58;12.30;99.90
25334;DHT22;24559;53.590;9.764;2023-03-23T03:12:01;13.00;99.90
25334;DHT22;24559;53.590;9.764;2023-03-23T03:14:30;13.10;99.90
25334;DHT22;24559;53.590;9.764;2023-03-23T03:16:58;13.10;99.90
25334;DHT22;24559;53.590;9.764;2023-03-23T03:19:34;13.10;99.90
25334;DHT22;24559;53.590;9.764;2023-03-23T03:22:01;13.10;99.90
25334;DHT22;24559;53.590;9.764;2023-03-23T03:24:36;13.00;99.90
25334;DHT22;24559;53.590;9.764;2023-03-23T03:27:03;13.00;99.90
25334;DHT22;24559;53.590;9.764;2023-03-23T03:29:40;13.00;99.90
25334;DHT22;24559;53.590;9.764;2023-03-23T03:32:08;13.00;99.90
25334;DHT22;24559;53.590;9.764;2023-03-23T03:34:35;13.00;99.90
25334;DHT22;24559;53.590;9.764;2023-03-23T03:37:03;13.00;99.90
25334;DHT22;24559;53.590;9.764;2023-03-23T03:39:30;13.00;99.90
25334;DHT22;24559;53.590;9.764;2023-03-23T03:42:02;13.00;99.90
25334;DHT22;24559;53.590;9.764;2023-03-23T03:44:28;13.00;99.90
25334;DHT22;24559;53.590;9.764;2023-03-23T03:46:55;13.10;99.90
25334;DHT22;24559;53.590;9.764;2023-03-23T03:49:21;13.00;99.90
25334;DHT22;24559;53.590;9.764;2023-03-23T03:51:48;13.00;99.90
25334;DHT22;24559;53.590;9.764;2023-03-23T03:54:22;13.10;99.90
25334;DHT22;24559;53.590;9.764;2023-03-23T03:56:48;13.10;99.90
25334;DHT22;24559;53.590;9.764;2023-03-23T03:59:39;13.10;99.90
25334;DHT22;24559;53.590;9.764;2023-03-23T04:02:24;13.20;99.90
25334;DHT22;24559;53.590;9.764;2023-03-23T04:04:51;13.40;99.90
25334;DHT22;24559;53.590;9.764;2023-03-23T04:07:18;13.20;99.90
25334;DHT22;24559;53.590;9.764;2023-03-23T04:09:44;13.00;99.90
25334;DHT22;24559;53.590;9.764;2023-03-23T04:12:12;13.10;99.90
25334;DHT22;24559;53.590;9.764;2023-03-23T04:14:57;13.20;99.90
25334;DHT22;24559;53.590;9.764;2023-03-23T04:17:28;13.10;99.90
25334;DHT22;24559;53.590;9.764;2023-03-23T04:19:56;13.20;99.90
25334;DHT22;24559;53.590;9.764;2023-03-23T04:22:23;13.00;99.90
25334;DHT22;24559;53.590;9.764;2023-03-23T04:24:59;13.10;99.90
25334;DHT22;24559;53.590;9.764;2023-03-23T04:27:28;13.10;99.90
25334;DHT22;24559;53.590;9.764;2023-03-23T04:29:56;13.20;99.90
25334;DHT22;24559;53.590;9.764;2023-03-23T04:32:40;13.20;99.90
25334;DHT22;24559;53.590;9.764;2023-03-23T04:35:12;13.60;99.90
25334;DHT22;24559;53.590;9.764;2023-03-23T04:37:45;13.30;99.90
25334;DHT22;24559;53.590;9.764;2023-03-23T04:40:15;13.40;99.90
25334;DHT22;24559;53.590;9.764;2023-03-23T04:42:46;13.30;99.90
25334;DHT22;24559;53.590;9.764;2023-03-23T04:45:34;13.30;99.90
25334;DHT22;24559;53.590;9.764;2023-03-23T04:48:00;13.20;99.90
25334;DHT22;24559;53.590;9.764;2023-03-23T04:50:35;13.10;99.90
25334;DHT22;24559;53.590;9.764;2023-03-23T04:53:12;13.00;99.90
25334;DHT22;24559;53.590;9.764;2023-03-23T04:55:39;13.10;99.90
25334;DHT22;24559;53.590;9.764;2023-03-23T04:58:07;13.00;99.90
25334;DHT22;24559;53.590;9.764;2023-03-23T05:00:39;13.00;99.90
25334;DHT22;24559;53.590;9.764;2023-03-23T05:03:06;13.10;99.90
25334;DHT22;24559;53.590;9.764;2023-03-23T05:05:33;13.00;99.90
25334;DHT22;24559;53.590;9.764;2023-03-23T05:08:05;13.00;99.90
25334;DHT22;24559;53.590;9.764;2023-03-23T05:10:35;13.10;99.90
25334;DHT22;24559;53.590;9.764;2023-03-23T05:13:06;13.10;99.90
25334;DHT22;24559;53.590;9.764;2023-03-23T05:15:32;13.00;99.90
25334;DHT22;24559;53.590;9.764;2023-03-23T05:17:58;12.90;99.90
25334;DHT22;24559;53.590;9.764;2023-03-23T05:20:24;12.90;99.90
25334;DHT22;24559;53.590;9.764;2023-03-23T05:22:56;13.00;99.90
25334;DHT22;24559;53.590;9.764;2023-03-23T05:25:28;13.10;99.90
25334;DHT22;24559;53.590;9.764;2023-03-23T05:28:03;13.10;99.90
25334;DHT22;24559;53.590;9.764;2023-03-23T05:30:49;13.10;99.90
25334;DHT22;24559;53.590;9.764;2023-03-23T05:33:16;13.10;99.90
25334;DHT22;24559;53.590;9.764;2023-03-23T05:35:52;13.10;99.90
25334;DHT22;24559;53.590;9.764;2023-03-23T05:38:24;13.40;99.90
25334;DHT22;24559;53.590;9.764;2023-03-23T05:40:50;13.10;99.90
25334;DHT22;24559;53.590;9.764;2023-03-23T05:43:23;13.00;99.90
25334;DHT22;24559;53.590;9.764;2023-03-23T05:46:15;13.10;99.90
25334;DHT22;24559;53.590;9.764;2023-03-23T05:48:41;13.20;99.90
25334;DHT22;24559;53.590;9.764;2023-03-23T05:51:14;13.10;99.90
25334;DHT22;24559;53.590;9.764;2023-03-23T05:53:42;13.20;99.90
25334;DHT22;24559;53.590;9.764;2023-03-23T05:56:10;13.20;99.90
25334;DHT22;24559;53.590;9.764;2023-03-23T05:58:51;13.10;99.90
25334;DHT22;24559;53.590;9.764;2023-03-23T06:01:18;13.10;99.90
25334;DHT22;24559;53.590;9.764;2023-03-23T06:03:44;13.10;99.90
25334;DHT22;24559;53.590;9.764;2023-03-23T06:06:19;13.20;99.90
25334;DHT22;24559;53.590;9.764;2023-03-23T06:08:53;13.10;99.90
25334;DHT22;24559;53.590;9.764;2023-03-23T06:11:29;13.10;99.90
25334;DHT22;24559;53.590;9.764;2023-03-23T06:14:20;13.20;99.90
25334;DHT22;24559;53.590;9.764;2023-03-23T06:16:47;13.10;99.90
25334;DHT22;24559;53.590;9.764;2023-03-23T06:19:14;13.00;99.90
25334;DHT22;24559;53.590;9.764;2023-03-23T06:21:48;13.00;99.90
25334;DHT22;24559;53.590;9.764;2023-03-23T06:24:49;13.00;99.90
25334;DHT22;24559;53.590;9.764;2023-03-23T06:27:20;12.90;99.90
25334;DHT22;24559;53.590;9.764;2023-03-23T06:29:49;13.10;99.90
25334;DHT22;24559;53.590;9.764;2023-03-23T06:32:14;13.80;99.90
25334;DHT22;24559;53.590;9.764;2023-03-23T06:34:42;13.10;99.90
25334;DHT22;24559;53.590;9.764;2023-03-23T06:37:38;13.10;99.90
25334;DHT22;24559;53.590;9.764;2023-03-23T06:40:23;13.20;99.90
25334;DHT22;24559;53.590;9.764;2023-03-23T06:42:53;13.20;99.90
25334;DHT22;24559;53.590;9.764;2023-03-23T06:45:38;13.30;99.90
25334;DHT22;24559;53.590;9.764;2023-03-23T06:48:22;13.30;99.90
25334;DHT22;24559;53.590;9.764;2023-03-23T06:50:48;13.50;99.90
25334;DHT22;24559;53.590;9.764;2023-03-23T06:53:16;13.60;99.90
25334;DHT22;24559;53.590;9.764;2023-03-23T06:55:43;13.70;99.90
25334;DHT22;24559;53.590;9.764;2023-03-23T06:58:10;13.70;99.90
25334;DHT22;24559;53.590;9.764;2023-03-23T07:00:37;13.70;99.90
25334;DHT22;24559;53.590;9.764;2023-03-23T07:03:03;13.80;99.90
25334;DHT22;24559;53.590;9.764;2023-03-23T07:05:30;13.90;99.90
25334;DHT22;24559;53.590;9.764;2023-03-23T07:07:55;13.90;99.90
25334;DHT22;24559;53.590;9.764;2023-03-23T07:10:44;13.90;99.90
25334;DHT22;24559;53.590;9.764;2023-03-23T07:13:12;13.90;99.90
25334;DHT22;24559;53.590;9.764;2023-03-23T07:15:46;13.80;99.90
25334;DHT22;24559;53.590;9.764;2023-03-23T07:18:12;13.80;99.90
25334;DHT22;24559;53.590;9.764;2023-03-23T07:20:47;13.80;99.90
25334;DHT22;24559;53.590;9.764;2023-03-23T07:23:14;13.90;99.90
25334;DHT22;24559;53.590;9.764;2023-03-23T07:25:45;13.90;99.90
25334;DHT22;24559;53.590;9.764;2023-03-23T07:28:18;13.80;99.90
25334;DHT22;24559;53.590;9.764;2023-03-23T07:30:45;13.90;99.90
25334;DHT22;24559;53.590;9.764;2023-03-23T07:33:11;13.90;99.90
25334;DHT22;24559;53.590;9.764;2023-03-23T07:35:38;13.80;99.90
25334;DHT22;24559;53.590;9.764;2023-03-23T07:38:07;13.80;99.90
25334;DHT22;24559;53.590;9.764;2023-03-23T07:40:34;13.80;99.90
25334;DHT22;24559;53.590;9.764;2023-03-23T07:43:06;13.80;99.90
25334;DHT22;24559;53.590;9.764;2023-03-23T07:45:52;13.70;99.90
25334;DHT22;24559;53.590;9.764;2023-03-23T07:48:19;13.70;99.90
25334;DHT22;24559;53.590;9.764;2023-03-23T07:50:45;13.70;99.90
25334;DHT22;24559;53.590;9.764;2023-03-23T07:53:12;13.80;99.90
25334;DHT22;24559;53.590;9.764;2023-03-23T07:55:42;13.80;99.90
25334;DHT22;24559;53.590;9.764;2023-03-23T07:58:36;13.80;99.90
25334;DHT22;24559;53.590;9.764;2023-03-23T08:01:02;13.80;99.90
25334;DHT22;24559;53.590;9.764;2023-03-23T08:03:31;13.20;99.90
25334;DHT22;24559;53.590;9.764;2023-03-23T08:06:20;13.00;99.90
25334;DHT22;24559;53.590;9.764;2023-03-23T08:08:58;12.90;99.90
25334;DHT22;24559;53.590;9.764;2023-03-23T08:11:48;12.90;99.90
25334;DHT22;24559;53.590;9.764;2023-03-23T08:14:32;12.80;99.90
25334;DHT22;24559;53.590;9.764;2023-03-23T08:17:07;12.60;99.90
25334;DHT22;24559;53.590;9.764;2023-03-23T08:19:52;12.60;99.90
25334;DHT22;24559;53.590;9.764;2023-03-23T08:22:31;12.70;99.90
25334;DHT22;24559;53.590;9.764;2023-03-23T08:25:15;12.80;99.90
25334;DHT22;24559;53.590;9.764;2023-03-23T08:28:06;12.80;99.90
25334;DHT22;24559;53.590;9.764;2023-03-23T08:31:05;12.70;99.90
25334;DHT22;24559;53.590;9.764;2023-03-23T08:33:55;12.70;99.90
25334;DHT22;24559;53.590;9.764;2023-03-23T08:36:37;12.70;99.90
25334;DHT22;24559;53.590;9.764;2023-03-23T08:39:26;12.80;99.90
25334;DHT22;24559;53.590;9.764;2023-03-23T08:42:06;13.00;99.90
25334;DHT22;24559;53.590;9.764;2023-03-23T08:44:43;13.00;99.90
25334;DHT22;24559;53.590;9.764;2023-03-23T08:47:18;13.10;99.90
25334;DHT22;24559;53.590;9.764;2023-03-23T08:49:55;13.30;99.90
25334;DHT22;24559;53.590;9.764;2023-03-23T08:52:51;13.40;99.90
25334;DHT22;24559;53.590;9.764;2023-03-23T08:55:40;13.60;99.90
25334;DHT22;24559;53.590;9.764;2023-03-23T08:58:15;13.60;99.90
25334;DHT22;24559;53.590;9.764;2023-03-23T09:00:47;13.70;99.90
25334;DHT22;24559;53.590;9.764;2023-03-23T09:03:27;13.80;99.90
25334;DHT22;24559;53.590;9.764;2023-03-23T09:06:07;13.80;99.90
25334;DHT22;24559;53.590;9.764;2023-03-23T09:08:42;13.80;99.90
25334;DHT22;24559;53.590;9.764;2023-03-23T09:11:10;13.80;99.90
25334;DHT22;24559;53.590;9.764;2023-03-23T09:13:36;13.80;99.90
25334;DHT22;24559;53.590;9.764;2023-03-23T09:16:02;13.90;99.90
25334;DHT22;24559;53.590;9.764;2023-03-23T09:18:29;14.10;99.90
25334;DHT22;24559;53.590;9.764;2023-03-23T09:20:55;14.20;99.90
25334;DHT22;24559;53.590;9.764;2023-03-23T09:23:21;14.20;99.90
25334;DHT22;24559;53.590;9.764;2023-03-23T09:25:46;14.20;99.90
25334;DHT22;24559;53.590;9.764;2023-03-23T09:28:12;14.10;99.90
25334;DHT22;24559;53.590;9.764;2023-03-23T09:30:39;14.20;99.90
25334;DHT22;24559;53.590;9.764;2023-03-23T09:33:07;14.10;99.90
25334;DHT22;24559;53.590;9.764;2023-03-23T09:35:33;14.20;99.90
25334;DHT22;24559;53.590;9.764;2023-03-23T09:38:01;14.40;99.90
25334;DHT22;24559;53.590;9.764;2023-03-23T09:40:47;14.60;99.90
25334;DHT22;24559;53.590;9.764;2023-03-23T09:54:03;15.40;99.90
25334;DHT22;24559;53.590;9.764;2023-03-23T09:56:31;15.60;99.90
25334;DHT22;24559;53.590;9.764;2023-03-23T09:59:10;15.70;99.90
25334;DHT22;24559;53.590;9.764;2023-03-23T10:01:45;15.70;99.90
25334;DHT22;24559;53.590;9.764;2023-03-23T10:06:39;15.60;99.90
25334;DHT22;24559;53.590;9.764;2023-03-23T10:09:05;15.70;99.90
25334;DHT22;24559;53.590;9.764;2023-03-23T10:14:13;15.90;99.90
25334;DHT22;24559;53.590;9.764;2023-03-23T10:17:28;16.00;99.90
25334;DHT22;24559;53.590;9.764;2023-03-23T10:19:29;16.20;99.90
25334;DHT22;24559;53.590;9.764;2023-03-23T10:21:58;16.40;99.90
25334;DHT22;24559;53.590;9.764;2023-03-23T10:27:31;16.50;99.90
25334;DHT22;24559;53.590;9.764;2023-03-23T10:30:02;16.50;99.90
25334;DHT22;24559;53.590;9.764;2023-03-23T10:32:39;16.60;99.90
25334;DHT22;24559;53.590;9.764;2023-03-23T10:35:09;16.70;99.90
25334;DHT22;24559;53.590;9.764;2023-03-23T10:37:37;16.70;99.90
25334;DHT22;24559;53.590;9.764;2023-03-23T10:40:04;16.60;99.90
25334;DHT22;24559;53.590;9.764;2023-03-23T10:42:35;16.80;99.90
25334;DHT22;24559;53.590;9.764;2023-03-23T10:47:49;16.60;99.90
25334;DHT22;24559;53.590;9.764;2023-03-23T10:50:18;16.40;99.90
25334;DHT22;24559;53.590;9.764;2023-03-23T10:52:47;16.50;99.90
25334;DHT22;24559;53.590;9.764;2023-03-23T10:55:16;16.60;99.90
25334;DHT22;24559;53.590;9.764;2023-03-23T10:57:46;16.50;99.90
25334;DHT22;24559;53.590;9.764;2023-03-23T11:00:18;17.10;99.90
25334;DHT22;24559;53.590;9.764;2023-03-23T11:02:56;16.60;99.90
25334;DHT22;24559;53.590;9.764;2023-03-23T11:05:27;16.70;99.90
25334;DHT22;24559;53.590;9.764;2023-03-23T11:07:58;16.80;99.90
25334;DHT22;24559;53.590;9.764;2023-03-23T11:10:26;17.00;99.90
25334;DHT22;24559;53.590;9.764;2023-03-23T11:12:52;17.10;99.90
25334;DHT22;24559;53.590;9.764;2023-03-23T11:15:24;17.10;99.90
25334;DHT22;24559;53.590;9.764;2023-03-23T11:17:54;17.00;99.90
25334;DHT22;24559;53.590;9.764;2023-03-23T11:20:21;17.00;99.90
25334;DHT22;24559;53.590;9.764;2023-03-23T11:22:46;17.10;99.90
25334;DHT22;24559;53.590;9.764;2023-03-23T11:25:13;17.10;99.90
25334;DHT22;24559;53.590;9.764;2023-03-23T11:27:40;17.20;99.90
25334;DHT22;24559;53.590;9.764;2023-03-23T11:30:10;17.10;99.90
25334;DHT22;24559;53.590;9.764;2023-03-23T11:32:36;17.00;99.90
25334;DHT22;24559;53.590;9.764;2023-03-23T11:35:04;17.10;99.90
25334;DHT22;24559;53.590;9.764;2023-03-23T11:55:14;17.30;99.90
25334;DHT22;24559;53.590;9.764;2023-03-23T11:57:40;17.10;99.90
25334;DHT22;24559;53.590;9.764;2023-03-23T12:00:21;17.00;99.90
25334;DHT22;24559;53.590;9.764;2023-03-23T12:02:59;16.90;99.90
25334;DHT22;24559;53.590;9.764;2023-03-23T12:05:49;16.70;99.90
25334;DHT22;24559;53.590;9.764;2023-03-23T12:26:24;16.10;99.90
25334;DHT22;24559;53.590;9.764;2023-03-23T12:34:46;16.10;99.90
25334;DHT22;24559;53.590;9.764;2023-03-23T12:41:38;16.40;99.90
25334;DHT22;24559;53.590;9.764;2023-03-23T12:44:10;16.30;99.90
25334;DHT22;24559;53.590;9.764;2023-03-23T12:49:11;16.20;99.90
25334;DHT22;24559;53.590;9.764;2023-03-23T12:54:29;16.40;99.90
25334;DHT22;24559;53.590;9.764;2023-03-23T12:59:38;16.80;99.90
25334;DHT22;24559;53.590;9.764;2023-03-23T13:04:43;17.50;99.90
25334;DHT22;24559;53.590;9.764;2023-03-23T13:07:12;17.90;99.90
25334;DHT22;24559;53.590;9.764;2023-03-23T13:09:48;18.40;99.90
25334;DHT22;24559;53.590;9.764;2023-03-23T13:12:16;19.00;99.90
25334;DHT22;24559;53.590;9.764;2023-03-23T13:22:40;19.60;99.90
25334;DHT22;24559;53.590;9.764;2023-03-23T13:25:13;19.50;99.90
25334;DHT22;24559;53.590;9.764;2023-03-23T13:27:41;19.20;99.90
25334;DHT22;24559;53.590;9.764;2023-03-23T13:30:18;19.20;99.90
25334;DHT22;24559;53.590;9.764;2023-03-23T13:32:48;18.90;99.90
25334;DHT22;24559;53.590;9.764;2023-03-23T13:35:16;18.60;99.90
25334;DHT22;24559;53.590;9.764;2023-03-23T13:37:46;18.20;99.90
25334;DHT22;24559;53.590;9.764;2023-03-23T13:42:48;17.90;99.90
25334;DHT22;24559;53.590;9.764;2023-03-23T13:48:03;17.20;99.90
25334;DHT22;24559;53.590;9.764;2023-03-23T13:50:30;16.40;99.90
25334;DHT22;24559;53.590;9.764;2023-03-23T13:53:00;15.80;99.90
25334;DHT22;24559;53.590;9.764;2023-03-23T14:03:05;14.60;99.90
25334;DHT22;24559;53.590;9.764;2023-03-23T14:05:39;15.10;99.90
25334;DHT22;24559;53.590;9.764;2023-03-23T14:13:11;14.60;99.90
25334;DHT22;24559;53.590;9.764;2023-03-23T14:15:44;14.60;99.90
25334;DHT22;24559;53.590;9.764;2023-03-23T14:18:14;14.70;99.90
25334;DHT22;24559;53.590;9.764;2023-03-23T14:20:41;14.90;99.90
25334;DHT22;24559;53.590;9.764;2023-03-23T14:23:14;15.10;99.90
25334;DHT22;24559;53.590;9.764;2023-03-23T14:25:40;15.20;99.90
25334;DHT22;24559;53.590;9.764;2023-03-23T14:28:16;15.50;99.90
25334;DHT22;24559;53.590;9.764;2023-03-23T14:30:41;15.90;99.90
25334;DHT22;24559;53.590;9.764;2023-03-23T14:33:10;16.20;99.90
25334;DHT22;24559;53.590;9.764;2023-03-23T14:35:39;16.50;99.90
25334;DHT22;24559;53.590;9.764;2023-03-23T14:38:08;16.90;99.90
25334;DHT22;24559;53.590;9.764;2023-03-23T14:40:39;17.10;99.90
25334;DHT22;24559;53.590;9.764;2023-03-23T14:43:05;17.20;99.90
25334;DHT22;24559;53.590;9.764;2023-03-23T14:45:31;17.30;99.90
25334;DHT22;24559;53.590;9.764;2023-03-23T14:47:58;17.30;99.90
25334;DHT22;24559;53.590;9.764;2023-03-23T14:50:36;17.30;99.90
25334;DHT22;24559;53.590;9.764;2023-03-23T14:53:09;17.30;99.90
25334;DHT22;24559;53.590;9.764;2023-03-23T14:55:36;17.30;99.90
25334;DHT22;24559;53.590;9.764;2023-03-23T14:58:08;17.10;99.90
25334;DHT22;24559;53.590;9.764;2023-03-23T15:00:45;17.00;99.90
25334;DHT22;24559;53.590;9.764;2023-03-23T15:03:14;17.00;99.90
25334;DHT22;24559;53.590;9.764;2023-03-23T15:05:42;16.90;99.90
25334;DHT22;24559;53.590;9.764;2023-03-23T15:08:15;16.80;99.90
25334;DHT22;24559;53.590;9.764;2023-03-23T15:11:05;16.70;99.90
25334;DHT22;24559;53.590;9.764;2023-03-23T15:13:28;16.80;99.90
25334;DHT22;24559;53.590;9.764;2023-03-23T15:16:01;16.70;99.90
25334;DHT22;24559;53.590;9.764;2023-03-23T15:18:34;16.70;99.90
25334;DHT22;24559;53.590;9.764;2023-03-23T15:21:08;16.60;99.90
25334;DHT22;24559;53.590;9.764;2023-03-23T15:23:33;16.50;99.90
25334;DHT22;24559;53.590;9.764;2023-03-23T15:26:02;16.40;99.90
25334;DHT22;24559;53.590;9.764;2023-03-23T15:28:30;16.20;99.90
25334;DHT22;24559;53.590;9.764;2023-03-23T15:30:57;16.00;99.90
25334;DHT22;24559;53.590;9.764;2023-03-23T15:33:25;15.70;99.90
25334;DHT22;24559;53.590;9.764;2023-03-23T15:35:55;15.60;99.90
25334;DHT22;24559;53.590;9.764;2023-03-23T15:38:22;15.50;99.90
25334;DHT22;24559;53.590;9.764;2023-03-23T15:40:49;15.30;99.90
25334;DHT22;24559;53.590;9.764;2023-03-23T15:43:17;15.30;99.90
25334;DHT22;24559;53.590;9.764;2023-03-23T15:45:51;15.40;99.90
25334;DHT22;24559;53.590;9.764;2023-03-23T15:48:17;15.20;99.90
25334;DHT22;24559;53.590;9.764;2023-03-23T15:50:42;15.00;99.90
25334;DHT22;24559;53.590;9.764;2023-03-23T15:53:28;14.90;99.90
25334;DHT22;24559;53.590;9.764;2023-03-23T15:55:54;14.90;99.90
25334;DHT22;24559;53.590;9.764;2023-03-23T15:58:20;14.90;99.90
25334;DHT22;24559;53.590;9.764;2023-03-23T16:00:46;14.80;99.90
25334;DHT22;24559;53.590;9.764;2023-03-23T16:03:17;14.90;99.90
25334;DHT22;24559;53.590;9.764;2023-03-23T16:05:44;14.80;99.90
25334;DHT22;24559;53.590;9.764;2023-03-23T16:08:10;14.60;99.90
25334;DHT22;24559;53.590;9.764;2023-03-23T16:10:36;14.40;99.90
25334;DHT22;24559;53.590;9.764;2023-03-23T16:13:02;14.00;99.90
25334;DHT22;24559;53.590;9.764;2023-03-23T16:15:30;14.00;99.90
25334;DHT22;24559;53.590;9.764;2023-03-23T16:17:56;14.00;99.90
25334;DHT22;24559;53.590;9.764;2023-03-23T16:20:22;14.10;99.90
25334;DHT22;24559;53.590;9.764;2023-03-23T16:22:48;14.10;99.90
25334;DHT22;24559;53.590;9.764;2023-03-23T16:25:14;14.10;99.90
25334;DHT22;24559;53.590;9.764;2023-03-23T16:27:41;14.00;99.90
25334;DHT22;24559;53.590;9.764;2023-03-23T16:30:17;14.10;99.90
25334;DHT22;24559;53.590;9.764;2023-03-23T16:32:43;14.10;99.90
25334;DHT22;24559;53.590;9.764;2023-03-23T16:35:11;14.10;99.90
25334;DHT22;24559;53.590;9.764;2023-03-23T16:37:37;14.10;99.90
25334;DHT22;24559;53.590;9.764;2023-03-23T16:40:03;14.10;99.90
25334;DHT22;24559;53.590;9.764;2023-03-23T16:42:30;14.20;99.90
25334;DHT22;24559;53.590;9.764;2023-03-23T16:44:55;14.20;99.90
25334;DHT22;24559;53.590;9.764;2023-03-23T16:47:21;14.20;99.90
25334;DHT22;24559;53.590;9.764;2023-03-23T16:49:50;14.20;99.90
25334;DHT22;24559;53.590;9.764;2023-03-23T16:52:16;14.00;99.90
25334;DHT22;24559;53.590;9.764;2023-03-23T16:54:42;14.20;99.90
25334;DHT22;24559;53.590;9.764;2023-03-23T16:57:09;13.90;99.90
25334;DHT22;24559;53.590;9.764;2023-03-23T16:59:35;14.00;99.90
25334;DHT22;24559;53.590;9.764;2023-03-23T17:02:01;14.00;99.90
25334;DHT22;24559;53.590;9.764;2023-03-23T17:04:31;14.00;99.90
25334;DHT22;24559;53.590;9.764;2023-03-23T17:06:57;14.00;99.90
25334;DHT22;24559;53.590;9.764;2023-03-23T17:09:24;13.90;99.90
25334;DHT22;24559;53.590;9.764;2023-03-23T17:11:50;14.30;99.90
25334;DHT22;24559;53.590;9.764;2023-03-23T17:14:16;13.90;99.90
25334;DHT22;24559;53.590;9.764;2023-03-23T17:16:42;13.90;99.90
25334;DHT22;24559;53.590;9.764;2023-03-23T17:19:07;13.80;99.90
25334;DHT22;24559;53.590;9.764;2023-03-23T17:21:33;13.80;99.90
25334;DHT22;24559;53.590;9.764;2023-03-23T17:23:59;13.80;99.90
25334;DHT22;24559;53.590;9.764;2023-03-23T17:26:24;13.70;99.90
25334;DHT22;24559;53.590;9.764;2023-03-23T17:28:50;14.10;99.90
25334;DHT22;24559;53.590;9.764;2023-03-23T17:31:16;13.60;99.90
25334;DHT22;24559;53.590;9.764;2023-03-23T17:33:42;13.50;99.90
25334;DHT22;24559;53.590;9.764;2023-03-23T17:36:07;13.40;99.90
25334;DHT22;24559;53.590;9.764;2023-03-23T17:38:33;13.40;99.90
25334;DHT22;24559;53.590;9.764;2023-03-23T17:40:59;13.30;99.90
25334;DHT22;24559;53.590;9.764;2023-03-23T17:43:26;13.20;99.90
25334;DHT22;24559;53.590;9.764;2023-03-23T17:45:51;13.10;99.90
25334;DHT22;24559;53.590;9.764;2023-03-23T17:48:17;13.10;99.90
25334;DHT22;24559;53.590;9.764;2023-03-23T17:50:47;13.00;99.90
25334;DHT22;24559;53.590;9.764;2023-03-23T17:53:13;12.90;99.90
25334;DHT22;24559;53.590;9.764;2023-03-23T17:55:39;12.90;99.90
25334;DHT22;24559;53.590;9.764;2023-03-23T17:58:07;12.80;99.90
25334;DHT22;24559;53.590;9.764;2023-03-23T18:00:33;12.80;99.90
25334;DHT22;24559;53.590;9.764;2023-03-23T18:02:59;12.70;99.90
25334;DHT22;24559;53.590;9.764;2023-03-23T18:05:25;12.70;99.90